Park City, UT

5:52 PM MDT on August 03, 2015 (GMT -0600)
Silver Summit | | Change Station
CLOSE
Current Station
Personal Weather Station
Location: Park City, UT
Elevation: 6568 ft
Nearby Weather Stations

Elev 6568 ft 40.71 °N, 111.49 °W | Updated 1 second ago

Overcast
Overcast
60.4 °F
Feels Like 60.4 °F
N
1.6
Wind Variable Wind from North
Gusts 1.6 mph

Today
High -- | Low -- °F
--% Chance of Precip.
Yesterday
High -- | Low -- °F
Precip. -- in
6:24 AM 8:39 PM
Waning Gibbous, 83% visible
Pressure 30.18 in
Visibility 10.0 miles
Clouds Scattered Clouds 6000 ft
Scattered Clouds 10000 ft
Scattered Clouds 12000 ft
Dew Point 53 °F
Humidity 77%
Rainfall 0.65 in
Snow Depth Not available.
UV 3 out of 12
Pollen 1.90 out of 12
Air Quality Not available.
Flu Activity Not available.
METAR K36U 032335Z AUTO 09006KT 10SM SCT060 SCT100 SCT120 18/11 A3018 RMK AO2

More Conditions Fewer Conditions

Pressure 30.18 in
Visibility 10.0 miles
Clouds Scattered Clouds 6000 ft
Scattered Clouds 10000 ft
Scattered Clouds 12000 ft
Dew Point 53 °F
Humidity 77%
Rainfall 0.65 in
Snow Depth Not available.
UV 3 out of 12
Pollen 1.90 out of 12
Air Quality Not available.
Flu Activity Not available.
METAR K36U 032335Z AUTO 09006KT 10SM SCT060 SCT100 SCT120 18/11 A3018 RMK AO2

More Conditions Fewer Conditions

10-Day Weather Forecast

×

Almanac

Astronomy

Aug. 03, 2015 Rise Set
Actual Time
Civil Twilight
Nautical Twilight
Astronomical Twilight
Moon
Length of Visible Light
Length of Day
Tomorrow will be .
, % of the Moon is Illuminated

Today's Extremes

State Highs State Lows

Community

WunderPhotos

Upload Photos

1,843,791 photos uploaded!

WunderBlogs® & News

Nearby

Air Quality

  Air Quality AQ Index Pollutant
Not available.

Snow Depth

Station Depth Elevation

Earthquake Activity

City Distance Mag. Time & Date
Minimum magnitude displayed is 2.5.

Coastal Water Temperatures

Place Temperature

Stations

Nearby Weather Stations

Station Location Temp. Windchill Dew Point Humidity Wind Precip. Elev Updated Type